createdAt,value
2023-01-06T00:01:27.381Z,8.48
2023-01-06T00:03:59.455Z,8.82
2023-01-06T00:06:31.128Z,9.93
2023-01-06T00:09:03.329Z,10.10
2023-01-06T00:11:32.460Z,10.30
2023-01-06T00:14:01.211Z,11.70
2023-01-06T00:16:29.843Z,10.23
2023-01-06T00:18:59.382Z,12.85
2023-01-06T00:21:29.712Z,11.65
2023-01-06T00:23:58.322Z,10.02
2023-01-06T00:26:26.608Z,7.80
2023-01-06T00:28:55.444Z,9.07
2023-01-06T00:31:24.245Z,13.40
2023-01-06T00:33:52.537Z,12.05
2023-01-06T00:36:21.719Z,13.20
2023-01-06T00:38:52.346Z,9.02
2023-01-06T00:41:38.165Z,12.32
2023-01-06T00:44:06.663Z,11.63
2023-01-06T00:46:35.484Z,13.30
2023-01-06T00:49:06.552Z,11.77
2023-01-06T00:51:36.594Z,8.95
2023-01-06T00:54:06.649Z,12.88
2023-01-06T00:56:37.553Z,12.48
2023-01-06T00:59:06.573Z,14.10
2023-01-06T01:01:34.937Z,12.32
2023-01-06T01:04:03.249Z,11.35
2023-01-06T01:06:31.494Z,10.02
2023-01-06T01:09:01.556Z,12.00
2023-01-06T01:11:48.661Z,12.43
2023-01-06T01:14:18.225Z,10.90
2023-01-06T01:16:46.709Z,10.32
2023-01-06T01:19:15.703Z,14.63
2023-01-06T01:21:44.097Z,8.65
2023-01-06T01:24:13.090Z,12.77
2023-01-06T01:26:42.655Z,8.60
2023-01-06T01:29:12.603Z,16.35
2023-01-06T01:31:41.350Z,10.07
2023-01-06T01:34:10.057Z,11.57
2023-01-06T01:36:38.327Z,7.22
2023-01-06T01:39:06.477Z,12.50
2023-01-06T01:41:34.641Z,8.82
2023-01-06T01:44:25.303Z,14.23
2023-01-06T01:46:53.564Z,10.48
2023-01-06T01:49:27.506Z,12.63
2023-01-06T01:51:58.161Z,9.68
2023-01-06T01:54:30.627Z,9.88
2023-01-06T01:57:05.486Z,10.45
2023-01-06T01:59:37.038Z,10.18
2023-01-06T02:02:05.677Z,13.70
2023-01-06T02:04:36.859Z,12.57
2023-01-06T02:07:06.421Z,11.83
2023-01-06T02:09:42.876Z,14.30
2023-01-06T02:12:11.292Z,11.20
2023-01-06T02:14:40.993Z,11.52
2023-01-06T02:17:28.081Z,11.80
2023-01-06T02:20:21.952Z,9.52
2023-01-06T02:23:22.624Z,10.45
2023-01-06T02:26:21.243Z,10.00
2023-01-06T02:29:15.090Z,11.50
2023-01-06T02:32:07.134Z,11.70
2023-01-06T02:34:46.302Z,11.57
2023-01-06T02:37:31.291Z,11.63
2023-01-06T02:40:16.741Z,9.38
2023-01-06T02:42:53.124Z,9.60
2023-01-06T02:45:26.657Z,8.48
2023-01-06T02:48:05.026Z,10.48
2023-01-06T02:50:40.069Z,10.02
2023-01-06T02:53:14.705Z,7.72
2023-01-06T02:55:47.278Z,9.25
2023-01-06T02:58:22.696Z,10.18
2023-01-06T03:00:57.422Z,7.57
2023-01-06T03:03:29.632Z,7.88
2023-01-06T03:06:04.342Z,8.32
2023-01-06T03:08:34.125Z,8.85
2023-01-06T03:11:03.853Z,8.20
2023-01-06T03:13:37.788Z,8.52
2023-01-06T03:16:07.054Z,7.05
2023-01-06T03:18:38.273Z,7.07
2023-01-06T03:21:12.306Z,8.32
2023-01-06T03:23:42.544Z,4.55
2023-01-06T03:26:11.154Z,5.55
2023-01-06T03:28:39.398Z,3.85
2023-01-06T03:31:15.556Z,2.90
2023-01-06T03:33:53.820Z,3.88
2023-01-06T03:36:30.125Z,3.42
2023-01-06T03:39:09.627Z,4.55
2023-01-06T03:42:00.016Z,4.30
2023-01-06T03:44:40.049Z,6.72
2023-01-06T03:47:16.434Z,5.05
2023-01-06T03:49:55.003Z,3.80
2023-01-06T03:52:28.841Z,6.07
2023-01-06T03:55:00.753Z,4.22
2023-01-06T04:00:03.575Z,5.90
2023-01-06T04:02:32.292Z,3.75
2023-01-06T04:05:09.537Z,3.72
2023-01-06T04:07:39.201Z,4.68
2023-01-06T04:10:08.641Z,6.57
2023-01-06T04:12:38.641Z,2.85
2023-01-06T04:15:08.573Z,5.00
2023-01-06T04:17:36.933Z,2.38
2023-01-06T04:20:07.614Z,4.22
2023-01-06T04:22:36.197Z,2.95
2023-01-06T04:25:05.015Z,2.00
2023-01-06T04:27:33.167Z,2.70
2023-01-06T04:30:01.316Z,2.25
2023-01-06T04:32:29.494Z,3.05
2023-01-06T04:34:57.717Z,1.92
2023-01-06T04:37:27.302Z,1.40
2023-01-06T04:39:55.595Z,3.15
2023-01-06T04:42:23.910Z,0.68
2023-01-06T04:44:52.103Z,0.10
2023-01-06T04:47:20.428Z,0.82
2023-01-06T04:49:48.586Z,0.03
2023-01-06T04:52:17.956Z,0.73
2023-01-06T04:54:47.468Z,0.20
2023-01-06T04:57:15.637Z,0.95
2023-01-06T04:59:43.785Z,0.30
2023-01-06T05:02:11.930Z,0.40
2023-01-06T05:04:47.357Z,1.65
2023-01-06T05:07:15.798Z,2.50
2023-01-06T05:09:43.961Z,0.30
2023-01-06T05:12:13.518Z,0.70
2023-01-06T05:14:41.681Z,0.38
2023-01-06T05:17:09.834Z,0.80
2023-01-06T05:19:38.008Z,0.93
2023-01-06T05:22:06.177Z,0.98
2023-01-06T05:24:34.350Z,1.88
2023-01-06T05:27:02.504Z,0.82
2023-01-06T05:29:32.219Z,0.40
2023-01-06T05:32:00.401Z,1.15
2023-01-06T05:34:28.888Z,2.25
2023-01-06T05:36:58.028Z,1.05
2023-01-06T05:39:26.308Z,1.13
2023-01-06T05:41:54.463Z,1.67
2023-01-06T05:44:22.600Z,2.55
2023-01-06T05:46:52.148Z,2.95
2023-01-06T05:49:20.361Z,0.73
2023-01-06T05:51:48.998Z,0.38
2023-01-06T05:54:17.318Z,0.73
2023-01-06T05:56:45.489Z,0.88
2023-01-06T05:59:13.629Z,0.57
2023-01-06T06:01:41.886Z,1.55
2023-01-06T06:04:13.147Z,0.43
2023-01-06T06:06:41.347Z,1.52
2023-01-06T06:09:09.742Z,0.45
2023-01-06T06:11:37.893Z,0.75
2023-01-06T06:14:06.102Z,2.97
2023-01-06T06:16:34.314Z,0.45
2023-01-06T06:19:02.523Z,1.10
2023-01-06T06:21:32.437Z,1.05
2023-01-06T06:24:01.620Z,1.30
2023-01-06T06:26:29.990Z,0.93
2023-01-06T06:28:58.291Z,2.28
2023-01-06T06:31:28.683Z,0.75
2023-01-06T06:33:58.336Z,0.75
2023-01-06T06:36:27.332Z,2.90
2023-01-06T06:38:57.291Z,0.85
2023-01-06T06:41:27.035Z,1.08
2023-01-06T06:43:55.255Z,2.13
2023-01-06T06:46:24.020Z,0.85
2023-01-06T06:48:52.206Z,0.80
2023-01-06T06:51:22.280Z,0.98
2023-01-06T06:53:51.839Z,0.80
2023-01-06T06:56:22.470Z,0.90
2023-01-06T06:58:50.963Z,0.90
2023-01-06T07:01:20.666Z,1.15
2023-01-06T07:03:49.459Z,1.65
2023-01-06T07:06:21.094Z,0.55
2023-01-06T07:08:49.869Z,0.75
2023-01-06T07:11:18.080Z,1.33
2023-01-06T07:13:47.853Z,1.60
2023-01-06T07:16:16.637Z,3.65
2023-01-06T07:18:44.942Z,0.70
2023-01-06T07:21:13.088Z,1.38
2023-01-06T07:23:41.351Z,1.75
2023-01-06T07:26:11.800Z,1.10
2023-01-06T07:28:40.079Z,1.10
2023-01-06T07:31:09.710Z,0.63
2023-01-06T07:33:37.905Z,1.20
2023-01-06T07:36:06.670Z,0.82
2023-01-06T07:38:34.833Z,2.38
2023-01-06T07:41:03.544Z,1.45
2023-01-06T07:43:31.754Z,1.83
2023-01-06T07:46:00.152Z,1.02
2023-01-06T07:48:29.715Z,2.78
2023-01-06T07:50:59.695Z,1.42
2023-01-06T07:53:28.030Z,0.70
2023-01-06T07:55:56.850Z,1.52
2023-01-06T07:58:25.101Z,1.27
2023-01-06T08:00:53.483Z,1.13
2023-01-06T08:03:21.963Z,0.80
2023-01-06T08:05:51.629Z,1.30
2023-01-06T08:08:19.790Z,1.60
2023-01-06T08:10:47.968Z,3.90
2023-01-06T08:13:16.464Z,2.28
2023-01-06T08:15:45.067Z,1.38
2023-01-06T08:18:13.405Z,5.72
2023-01-06T08:20:41.684Z,0.95
2023-01-06T08:23:11.248Z,0.75
2023-01-06T08:25:39.420Z,1.42
2023-01-06T08:28:07.648Z,1.98
2023-01-06T08:30:40.032Z,2.38
2023-01-06T08:33:08.393Z,1.23
2023-01-06T08:35:36.551Z,1.73
2023-01-06T08:38:04.698Z,2.30
2023-01-06T08:40:34.257Z,1.08
2023-01-06T08:43:02.417Z,1.40
2023-01-06T08:45:30.652Z,2.33
2023-01-06T08:47:59.645Z,4.78
2023-01-06T08:50:27.914Z,1.85
2023-01-06T08:52:56.202Z,0.77
2023-01-06T08:55:24.370Z,3.20
2023-01-06T08:57:55.180Z,1.52
2023-01-06T09:00:23.725Z,2.67
2023-01-06T09:02:52.087Z,1.38
2023-01-06T09:05:20.363Z,3.70
2023-01-06T09:07:50.663Z,2.67
2023-01-06T09:10:19.902Z,0.60
2023-01-06T09:12:48.512Z,1.83
2023-01-06T09:15:18.562Z,1.77
2023-01-06T09:17:46.761Z,1.70
2023-01-06T09:20:14.946Z,0.60
2023-01-06T09:22:43.119Z,1.52
2023-01-06T09:25:11.368Z,2.00
2023-01-06T09:27:39.682Z,1.15
2023-01-06T09:30:09.235Z,5.00
2023-01-06T09:32:38.763Z,1.00
2023-01-06T09:35:07.974Z,0.73
2023-01-06T09:37:36.229Z,1.95
2023-01-06T09:40:04.743Z,3.20
2023-01-06T09:42:45.508Z,1.23
2023-01-06T09:45:19.147Z,2.72
2023-01-06T09:47:53.136Z,2.35
2023-01-06T09:50:31.770Z,1.52
2023-01-06T09:53:04.535Z,0.88
2023-01-06T09:55:36.889Z,1.00
2023-01-06T09:58:07.912Z,0.80
2023-01-06T10:00:40.861Z,1.17
2023-01-06T10:03:15.168Z,0.47
2023-01-06T10:05:58.859Z,3.50
2023-01-06T10:08:36.430Z,1.13
2023-01-06T10:11:13.567Z,1.10
2023-01-06T10:14:10.752Z,1.23
2023-01-06T10:17:01.697Z,1.63
2023-01-06T10:19:48.515Z,1.60
2023-01-06T10:22:23.784Z,3.65
2023-01-06T10:24:57.420Z,1.52
2023-01-06T10:27:28.904Z,1.58
2023-01-06T10:30:00.336Z,1.00
2023-01-06T10:32:33.589Z,1.27
2023-01-06T10:35:03.957Z,1.65
2023-01-06T10:37:38.830Z,0.85
2023-01-06T10:40:19.565Z,0.57
2023-01-06T10:43:00.380Z,1.67
2023-01-06T10:45:34.605Z,0.25
2023-01-06T10:48:04.078Z,0.93
2023-01-06T10:50:34.834Z,0.57
2023-01-06T10:53:03.021Z,1.13
2023-01-06T10:55:39.349Z,0.55
2023-01-06T10:58:17.485Z,0.75
2023-01-06T11:01:00.717Z,0.68
2023-01-06T11:03:34.465Z,3.35
2023-01-06T11:06:11.335Z,0.93
2023-01-06T11:08:40.886Z,0.10
2023-01-06T11:11:27.132Z,2.17
2023-01-06T11:13:58.316Z,0.65
2023-01-06T11:16:29.043Z,1.33
2023-01-06T11:18:59.776Z,0.70
2023-01-06T11:21:40.842Z,0.57
2023-01-06T11:24:19.049Z,1.63
2023-01-06T11:26:52.246Z,0.45
2023-01-06T11:29:25.865Z,0.52
2023-01-06T11:31:54.216Z,0.50
2023-01-06T11:34:24.871Z,1.13
2023-01-06T11:36:54.702Z,0.95
2023-01-06T11:39:28.186Z,1.35
2023-01-06T11:41:58.018Z,0.93
2023-01-06T11:44:32.866Z,0.47
2023-01-06T11:47:04.444Z,0.90
2023-01-06T11:49:36.242Z,0.95
2023-01-06T11:52:08.208Z,0.90
2023-01-06T11:57:24.427Z,0.60
2023-01-06T12:00:21.369Z,0.50
2023-01-06T12:02:53.958Z,0.50
2023-01-06T12:05:30.760Z,1.00
2023-01-06T12:08:00.525Z,1.98
2023-01-06T12:10:33.824Z,0.30
2023-01-06T12:13:02.071Z,1.00
2023-01-06T12:15:33.489Z,0.45
2023-01-06T12:18:06.022Z,1.17
2023-01-06T12:20:36.310Z,1.80
2023-01-06T12:23:11.749Z,0.70
2023-01-06T12:25:43.772Z,1.35
2023-01-06T12:28:18.326Z,1.02
2023-01-06T12:30:54.769Z,1.35
2023-01-06T12:33:27.684Z,0.52
2023-01-06T12:35:58.495Z,0.93
2023-01-06T12:38:40.786Z,0.90
2023-01-06T12:41:15.149Z,0.25
2023-01-06T12:43:51.225Z,0.55
2023-01-06T12:46:25.117Z,1.40
2023-01-06T12:48:58.181Z,1.00
2023-01-06T12:51:32.335Z,0.43
2023-01-06T12:54:13.148Z,0.95
2023-01-06T12:56:59.339Z,0.43
2023-01-06T12:59:34.644Z,0.10
2023-01-06T13:02:15.362Z,0.25
2023-01-06T13:05:00.149Z,0.30
2023-01-06T13:07:40.807Z,0.30
2023-01-06T13:10:22.472Z,1.98
2023-01-06T13:13:19.739Z,3.42
2023-01-06T13:15:48.290Z,4.00
2023-01-06T13:18:23.543Z,3.70
2023-01-06T13:20:57.755Z,2.33
2023-01-06T13:23:41.291Z,5.85
2023-01-06T13:26:35.443Z,2.63
2023-01-06T13:29:14.084Z,2.50
2023-01-06T13:32:14.662Z,1.20
2023-01-06T13:35:05.480Z,0.45
2023-01-06T13:37:37.798Z,1.08
2023-01-06T13:40:12.812Z,0.47
2023-01-06T13:42:47.214Z,0.85
2023-01-06T13:45:20.637Z,1.13
2023-01-06T13:47:50.561Z,0.10
2023-01-06T13:50:21.503Z,0.13
2023-01-06T13:52:51.295Z,0.95
2023-01-06T13:55:28.666Z,0.57
2023-01-06T13:58:18.849Z,1.65
2023-01-06T14:01:07.190Z,0.43
2023-01-06T14:03:36.559Z,0.50
2023-01-06T14:06:06.035Z,1.55
2023-01-06T14:08:40.537Z,1.27
2023-01-06T14:11:25.961Z,0.60
2023-01-06T14:13:57.687Z,1.45
2023-01-06T14:16:42.079Z,0.70
2023-01-06T14:19:17.278Z,1.33
2023-01-06T14:21:46.518Z,0.95
2023-01-06T14:24:26.678Z,0.38
2023-01-06T14:26:59.131Z,0.30
2023-01-06T14:30:04.748Z,0.50
2023-01-06T14:33:02.560Z,1.65
2023-01-06T14:35:34.351Z,1.17
2023-01-06T14:38:04.880Z,2.25
2023-01-06T14:40:38.625Z,0.85
2023-01-06T14:43:25.107Z,1.30
2023-01-06T14:45:55.326Z,3.90
2023-01-06T14:48:27.488Z,1.83
2023-01-06T14:50:58.964Z,1.67
2023-01-06T14:53:33.062Z,3.17
2023-01-06T14:56:01.902Z,2.88
2023-01-06T14:58:31.205Z,3.42
2023-01-06T15:01:02.881Z,1.42
2023-01-06T15:03:32.063Z,1.40
2023-01-06T15:06:17.977Z,3.08
2023-01-06T15:08:46.165Z,5.72
2023-01-06T15:11:22.884Z,2.80
2023-01-06T15:13:51.205Z,2.45
2023-01-06T15:16:29.807Z,3.83
2023-01-06T15:18:58.069Z,3.95
2023-01-06T15:21:26.418Z,2.08
2023-01-06T15:23:55.806Z,1.35
2023-01-06T15:26:27.311Z,2.17
2023-01-06T15:29:01.918Z,2.65
2023-01-06T15:31:34.471Z,3.88
2023-01-06T15:34:06.895Z,4.85
2023-01-06T15:36:35.631Z,11.68
2023-01-06T15:39:05.811Z,7.18
2023-01-06T15:41:36.863Z,3.08
2023-01-06T15:44:21.762Z,1.80
2023-01-06T15:46:53.740Z,1.65
2023-01-06T15:51:56.807Z,0.85
2023-01-06T15:54:26.880Z,0.22
2023-01-06T15:56:55.790Z,1.05
2023-01-06T15:59:25.170Z,0.82
2023-01-06T16:01:56.416Z,0.50
2023-01-06T16:04:25.517Z,0.68
2023-01-06T16:06:53.780Z,0.43
2023-01-06T16:09:35.910Z,0.80
2023-01-06T16:14:46.647Z,0.60
2023-01-06T16:17:25.583Z,0.17
2023-01-06T16:20:00.141Z,1.08
2023-01-06T16:22:35.284Z,0.90
2023-01-06T16:25:06.576Z,1.00
2023-01-06T16:27:35.044Z,1.33
2023-01-06T16:30:22.682Z,0.52
2023-01-06T16:32:53.687Z,0.30
2023-01-06T16:35:23.506Z,1.83
2023-01-06T16:37:52.749Z,0.85
2023-01-06T16:40:22.736Z,0.70
2023-01-06T16:42:52.074Z,1.17
2023-01-06T16:45:25.678Z,0.30
2023-01-06T16:47:56.028Z,0.75
2023-01-06T16:50:27.061Z,2.55
2023-01-06T16:53:06.964Z,0.70
2023-01-06T16:55:35.371Z,0.75
2023-01-06T16:58:13.037Z,0.40
2023-01-06T17:00:44.004Z,0.55
2023-01-06T17:03:17.245Z,0.22
2023-01-06T17:05:45.669Z,0.90
2023-01-06T17:08:16.774Z,0.73
2023-01-06T17:10:45.387Z,0.87
2023-01-06T17:13:35.725Z,0.55
2023-01-06T17:16:14.654Z,0.55
2023-01-06T17:18:50.546Z,0.45
2023-01-06T17:21:20.225Z,0.70
2023-01-06T17:23:51.131Z,0.30
2023-01-06T17:26:21.029Z,1.00
2023-01-06T17:28:51.227Z,0.25
2023-01-06T17:31:27.140Z,0.30
2023-01-06T17:33:58.692Z,0.50
2023-01-06T17:36:32.706Z,0.57
2023-01-06T17:39:00.836Z,1.05
2023-01-06T17:41:30.688Z,0.28
2023-01-06T17:43:58.862Z,0.55
2023-01-06T17:46:34.019Z,0.20
2023-01-06T17:49:11.470Z,3.15
2023-01-06T17:51:41.232Z,0.30
2023-01-06T17:54:34.171Z,0.52
2023-01-06T17:57:12.729Z,0.50
2023-01-06T17:59:41.577Z,0.10
2023-01-06T18:02:26.058Z,0.47
2023-01-06T18:04:56.118Z,0.80
2023-01-06T18:07:25.064Z,2.17
2023-01-06T18:09:54.782Z,1.30
2023-01-06T18:12:22.932Z,0.50
2023-01-06T18:14:51.085Z,0.82
2023-01-06T18:17:24.609Z,0.45
2023-01-06T18:19:53.197Z,0.20
2023-01-06T18:22:24.815Z,0.70
2023-01-06T18:24:56.308Z,0.60
2023-01-06T18:27:27.226Z,1.80
2023-01-06T18:29:59.626Z,2.08
2023-01-06T18:32:31.884Z,1.92
2023-01-06T18:35:01.331Z,3.20
2023-01-06T18:37:33.088Z,2.75
2023-01-06T18:40:04.904Z,2.15
2023-01-06T18:45:14.326Z,1.73
2023-01-06T18:47:44.461Z,4.10
2023-01-06T18:50:34.643Z,2.83
2023-01-06T18:53:08.920Z,4.68
2023-01-06T18:55:39.653Z,4.63
2023-01-06T18:58:22.665Z,3.67
2023-01-06T19:00:54.849Z,2.50
2023-01-06T19:03:36.844Z,2.58
2023-01-06T19:06:34.055Z,3.33
2023-01-06T19:09:11.829Z,2.83
2023-01-06T19:11:40.015Z,5.68
2023-01-06T19:14:14.699Z,3.63
2023-01-06T19:16:48.397Z,3.45
2023-01-06T19:19:29.251Z,2.53
2023-01-06T19:22:16.044Z,3.45
2023-01-06T19:24:49.958Z,2.92
2023-01-06T19:27:40.595Z,5.25
2023-01-06T19:30:45.147Z,4.43
2023-01-06T19:33:37.060Z,2.65
2023-01-06T19:36:40.235Z,3.30
2023-01-06T19:39:30.333Z,2.75
2023-01-06T19:42:14.223Z,2.03
2023-01-06T19:44:42.920Z,1.63
2023-01-06T19:47:17.747Z,2.25
2023-01-06T19:49:52.826Z,3.03
2023-01-06T19:52:30.012Z,3.85
2023-01-06T19:55:03.681Z,4.07
2023-01-06T19:57:40.106Z,3.30
2023-01-06T20:00:24.614Z,3.63
2023-01-06T20:02:54.467Z,5.53
2023-01-06T20:05:22.756Z,5.30
2023-01-06T20:07:51.042Z,5.57
2023-01-06T20:10:20.567Z,4.00
2023-01-06T20:12:50.490Z,3.25
2023-01-06T20:15:18.931Z,2.53
2023-01-06T20:17:47.082Z,1.50
2023-01-06T20:20:15.621Z,1.90
2023-01-06T20:22:44.695Z,3.63
2023-01-06T20:25:12.887Z,3.00
2023-01-06T20:27:41.083Z,2.65
2023-01-06T20:30:11.571Z,1.52
2023-01-06T20:32:39.771Z,33.53
2023-01-06T20:35:09.345Z,48.25
2023-01-06T20:37:39.037Z,11.95
2023-01-06T20:40:08.408Z,14.68
2023-01-06T20:42:36.565Z,9.18
2023-01-06T20:45:05.398Z,12.02
2023-01-06T20:47:34.983Z,17.15
2023-01-06T20:50:03.242Z,6.30
2023-01-06T20:52:31.384Z,7.28
2023-01-06T20:54:59.511Z,4.13
2023-01-06T20:57:27.699Z,3.70
2023-01-06T20:59:55.853Z,2.58
2023-01-06T21:02:24.146Z,2.40
2023-01-06T21:04:53.741Z,2.97
2023-01-06T21:07:21.878Z,2.72
2023-01-06T21:09:50.059Z,6.63
2023-01-06T21:12:18.257Z,3.72
2023-01-06T21:14:46.421Z,3.40
2023-01-06T21:17:14.642Z,2.50
2023-01-06T21:19:42.811Z,2.13
2023-01-06T21:22:12.356Z,2.00
2023-01-06T21:24:40.650Z,2.10
2023-01-06T21:27:08.845Z,3.53
2023-01-06T21:29:37.150Z,5.32
2023-01-06T21:32:05.741Z,2.50
2023-01-06T21:34:33.924Z,2.80
2023-01-06T21:37:02.073Z,2.45
2023-01-06T21:39:31.775Z,4.35
2023-01-06T21:42:17.172Z,2.63
2023-01-06T21:44:45.658Z,2.50
2023-01-06T21:47:13.978Z,3.25
2023-01-06T21:49:43.533Z,3.55
2023-01-06T21:52:12.965Z,2.30
2023-01-06T21:54:42.969Z,2.38
2023-01-06T21:57:11.262Z,2.80
2023-01-06T21:59:39.939Z,3.03
2023-01-06T22:02:09.285Z,2.88
2023-01-06T22:04:37.682Z,3.35
2023-01-06T22:07:09.315Z,2.80
2023-01-06T22:09:39.995Z,2.70
2023-01-06T22:12:12.637Z,2.30
2023-01-06T22:14:41.182Z,3.75
2023-01-06T22:17:09.586Z,2.60
2023-01-06T22:19:38.969Z,2.38
2023-01-06T22:22:07.798Z,2.33
2023-01-06T22:24:36.833Z,3.00
2023-01-06T22:27:05.066Z,2.47
2023-01-06T22:29:34.637Z,3.83
2023-01-06T22:32:03.464Z,4.72
2023-01-06T22:34:31.936Z,3.63
2023-01-06T22:37:00.161Z,3.00
2023-01-06T22:39:28.311Z,2.47
2023-01-06T22:41:56.528Z,3.13
2023-01-06T22:44:24.706Z,4.30
2023-01-06T22:46:56.812Z,3.10
2023-01-06T22:49:24.964Z,3.25
2023-01-06T22:51:53.140Z,3.53
2023-01-06T22:54:21.285Z,4.57
2023-01-06T22:56:49.462Z,6.72
2023-01-06T22:59:17.663Z,4.70
2023-01-06T23:01:45.983Z,5.00
2023-01-06T23:04:15.922Z,3.40
2023-01-06T23:06:44.074Z,3.17
2023-01-06T23:09:12.305Z,3.17
2023-01-06T23:11:41.702Z,5.47
2023-01-06T23:14:10.904Z,4.00
2023-01-06T23:16:40.843Z,5.65
2023-01-06T23:19:12.007Z,4.28
2023-01-06T23:21:42.206Z,3.97
2023-01-06T23:24:10.854Z,5.30
2023-01-06T23:26:40.951Z,5.00
2023-01-06T23:29:10.060Z,5.05
2023-01-06T23:31:43.019Z,4.78
2023-01-06T23:34:13.449Z,4.53
2023-01-06T23:36:43.398Z,4.70
2023-01-06T23:39:13.618Z,5.32
2023-01-06T23:41:41.969Z,6.10
2023-01-06T23:44:13.159Z,4.68
2023-01-06T23:46:41.472Z,5.32
2023-01-06T23:49:11.912Z,5.38
2023-01-06T23:51:40.516Z,6.95
2023-01-06T23:54:12.325Z,7.43
2023-01-06T23:56:40.812Z,4.80
2023-01-06T23:59:09.909Z,5.50
